ベルリン/テーゲル の空港の天気 - METARとTAF

ベルリン・テーゲル国際空港 ( EDDT / TXL ) - ドイツ ベルリン
飛行場実況気象(Metar)
観測時間10/21 20:20 CEST (10/21 18:20 UTC)
風向・風速南 5m/s
視程10km以上
天気現象
なし
気温13℃
湿度77%
気圧1007hPa
METAREDDT 211820Z 18009KT CAVOK 13/09 Q1007 NOSIG
過去の天気等 Google飛行場航空写真 Wunderground天気予報

過去48時間のMETAR

飛行場予報(TAF)
発表時間: 10/21 19:00 CEST (10/21 17:00 UTC)
予報対象時間: 21日20時 CEST ~ 22日20時 CEST
風向・風速南 4m/s
視程10km以上
なし
21日21時 CEST ~ 21日23時 CEST に徐々に
風向・風速南西 6m/s
TAF EDDT 211700Z 2118/2218 17008KT CAVOK
BECMG 2119/2121 23011KT